GLO7012 SBCF-SBIL
Flight info
| Callsign | GLO7012 |
|---|---|
| Flight time | 1h 6m |
| Altitude | 37000 |
| Route | KADOR UZ14 DALOX |
| Aircraft | B738/M-SDE2E3FGHIRWXY/LB1 |
Departure
| Time | 2026-05-09 08:09 |
|---|---|
| Airport | Tancredo Neves International Airport (SBCF) |
Arrival
| Time | 2026-05-09 09:16 |
|---|---|
| Airport | Bahia - Jorge Amado Airport (SBIL) |
| Time | Latitude | Longitude | Altitude | Speed | Heading |
|---|---|---|---|---|---|
| 2026-05-09 07:53 | -19.63091 | -43.96571 | 2757 ft | 0 kts | 51° |
| 2026-05-09 07:59 | -19.63092 | -43.96572 | 2757 ft | 0 kts | 51° |
| 2026-05-09 07:59 | -19.63100 | -43.96583 | 2757 ft | 2 kts | 51° |
| 2026-05-09 07:59 | -19.63110 | -43.96595 | 2757 ft | 2 kts | 51° |
| 2026-05-09 07:59 | -19.63116 | -43.96603 | 2758 ft | 2 kts | 51° |
| 2026-05-09 08:00 | -19.63128 | -43.96612 | 2758 ft | 2 kts | 18° |
| 2026-05-09 08:00 | -19.63143 | -43.96615 | 2758 ft | 2 kts | 353° |
| 2026-05-09 08:00 | -19.63157 | -43.96610 | 2758 ft | 1 kts | 327° |
| 2026-05-09 08:00 | -19.63162 | -43.96606 | 2758 ft | 1 kts | 318° |
| 2026-05-09 08:01 | -19.63164 | -43.96604 | 2758 ft | 0 kts | 320° |
| 2026-05-09 08:03 | -19.63161 | -43.96607 | 2758 ft | 2 kts | 321° |
| 2026-05-09 08:04 | -19.63133 | -43.96630 | 2758 ft | 7 kts | 322° |
| 2026-05-09 08:04 | -19.63079 | -43.96679 | 2757 ft | 11 kts | 317° |
| 2026-05-09 08:04 | -19.63019 | -43.96738 | 2757 ft | 12 kts | 317° |
| 2026-05-09 08:04 | -19.62954 | -43.96801 | 2759 ft | 12 kts | 316° |
| 2026-05-09 08:05 | -19.62892 | -43.96860 | 2760 ft | 12 kts | 320° |
| 2026-05-09 08:05 | -19.62831 | -43.96928 | 2760 ft | 13 kts | 295° |
| 2026-05-09 08:05 | -19.62805 | -43.97028 | 2758 ft | 11 kts | 274° |
| 2026-05-09 08:05 | -19.62837 | -43.97108 | 2759 ft | 12 kts | 261° |
| 2026-05-09 08:06 | -19.62790 | -43.97186 | 2759 ft | 13 kts | 318° |
| 2026-05-09 08:06 | -19.62713 | -43.97257 | 2758 ft | 15 kts | 319° |
| 2026-05-09 08:06 | -19.62631 | -43.97333 | 2758 ft | 16 kts | 319° |
| 2026-05-09 08:06 | -19.62542 | -43.97414 | 2758 ft | 17 kts | 319° |
| 2026-05-09 08:07 | -19.62448 | -43.97502 | 2758 ft | 18 kts | 319° |
| 2026-05-09 08:07 | -19.62356 | -43.97587 | 2758 ft | 16 kts | 319° |
| 2026-05-09 08:07 | -19.62280 | -43.97656 | 2758 ft | 10 kts | 320° |
| 2026-05-09 08:07 | -19.62239 | -43.97721 | 2758 ft | 11 kts | 269° |
| 2026-05-09 08:08 | -19.62294 | -43.97778 | 2758 ft | 12 kts | 192° |
| 2026-05-09 08:08 | -19.62386 | -43.97776 | 2758 ft | 16 kts | 158° |
| 2026-05-09 08:08 | -19.62520 | -43.97663 | 2758 ft | 42 kts | 139° |
| 2026-05-09 08:08 | -19.62932 | -43.97284 | 2759 ft | 112 kts | 139° |
| 2026-05-09 08:09 | -19.63671 | -43.96601 | 2759 ft | 164 kts | 139° |
| 2026-05-09 08:09 | -19.64630 | -43.95707 | 2887 ft | 194 kts | 137° |
| 2026-05-09 08:09 | -19.65595 | -43.94741 | 3542 ft | 192 kts | 137° |
| 2026-05-09 08:09 | -19.66578 | -43.93760 | 4115 ft | 200 kts | 136° |
| 2026-05-09 08:10 | -19.67608 | -43.92719 | 4496 ft | 211 kts | 134° |
| 2026-05-09 08:10 | -19.68618 | -43.91568 | 4961 ft | 211 kts | 127° |
| 2026-05-09 08:10 | -19.69439 | -43.90272 | 5385 ft | 213 kts | 115° |
| 2026-05-09 08:10 | -19.69891 | -43.88783 | 5783 ft | 214 kts | 92° |
| 2026-05-09 08:11 | -19.69748 | -43.87255 | 6462 ft | 211 kts | 68° |
| 2026-05-09 08:11 | -19.69032 | -43.85898 | 7124 ft | 213 kts | 48° |
| 2026-05-09 08:11 | -19.68065 | -43.84754 | 7901 ft | 210 kts | 46° |
| 2026-05-09 08:11 | -19.67170 | -43.83537 | 8539 ft | 218 kts | 53° |
| 2026-05-09 08:12 | -19.65483 | -43.80387 | 9227 ft | 263 kts | 62° |
| 2026-05-09 08:12 | -19.64679 | -43.78532 | 9602 ft | 282 kts | 63° |
| 2026-05-09 08:12 | -19.63883 | -43.76676 | 10416 ft | 284 kts | 63° |
| 2026-05-09 08:13 | -19.63030 | -43.74768 | 11165 ft | 287 kts | 62° |
| 2026-05-09 08:13 | -19.62128 | -43.72844 | 11734 ft | 297 kts | 59° |
| 2026-05-09 08:13 | -19.60989 | -43.70983 | 12153 ft | 310 kts | 51° |
| 2026-05-09 08:13 | -19.59614 | -43.69175 | 12590 ft | 323 kts | 48° |
| 2026-05-09 08:14 | -19.58100 | -43.67309 | 12951 ft | 339 kts | 47° |
| 2026-05-09 08:14 | -19.56531 | -43.65375 | 13368 ft | 352 kts | 48° |
| 2026-05-09 08:14 | -19.54952 | -43.63397 | 13948 ft | 358 kts | 49° |
| 2026-05-09 08:14 | -19.53348 | -43.61357 | 14552 ft | 364 kts | 49° |
| 2026-05-09 08:15 | -19.51736 | -43.59290 | 15176 ft | 368 kts | 49° |
| 2026-05-09 08:15 | -19.50095 | -43.57144 | 15645 ft | 372 kts | 50° |
| 2026-05-09 08:15 | -19.48512 | -43.54984 | 16036 ft | 373 kts | 51° |
| 2026-05-09 08:15 | -19.46944 | -43.52797 | 16399 ft | 376 kts | 52° |
| 2026-05-09 08:16 | -19.45377 | -43.50602 | 16490 ft | 377 kts | 52° |
| 2026-05-09 08:16 | -19.43766 | -43.48356 | 16785 ft | 386 kts | 52° |
| 2026-05-09 08:16 | -19.42144 | -43.46102 | 17573 ft | 383 kts | 52° |
| 2026-05-09 08:16 | -19.40527 | -43.43866 | 18125 ft | 387 kts | 52° |
| 2026-05-09 08:17 | -19.38862 | -43.41568 | 18612 ft | 393 kts | 52° |
| 2026-05-09 08:17 | -19.37194 | -43.39273 | 19073 ft | 398 kts | 52° |
| 2026-05-09 08:17 | -19.35495 | -43.36936 | 19586 ft | 402 kts | 52° |
| 2026-05-09 08:17 | -19.33779 | -43.34579 | 20036 ft | 407 kts | 51° |
| 2026-05-09 08:18 | -19.32064 | -43.32222 | 20500 ft | 412 kts | 51° |
| 2026-05-09 08:18 | -19.30300 | -43.29795 | 20931 ft | 417 kts | 51° |
| 2026-05-09 08:18 | -19.28513 | -43.27336 | 21360 ft | 422 kts | 51° |
| 2026-05-09 08:18 | -19.26717 | -43.24863 | 21811 ft | 426 kts | 52° |
| 2026-05-09 08:19 | -19.24922 | -43.22391 | 22227 ft | 430 kts | 51° |
| 2026-05-09 08:19 | -19.23082 | -43.19860 | 22646 ft | 434 kts | 51° |
| 2026-05-09 08:19 | -19.21230 | -43.17312 | 23129 ft | 437 kts | 51° |
| 2026-05-09 08:19 | -19.19381 | -43.14770 | 23535 ft | 441 kts | 51° |
| 2026-05-09 08:20 | -19.17505 | -43.12192 | 24001 ft | 444 kts | 51° |
| 2026-05-09 08:20 | -19.15613 | -43.09594 | 24420 ft | 448 kts | 51° |
| 2026-05-09 08:20 | -19.13708 | -43.06978 | 24868 ft | 451 kts | 51° |
| 2026-05-09 08:20 | -19.11786 | -43.04340 | 25217 ft | 456 kts | 51° |
| 2026-05-09 08:21 | -19.09853 | -43.01688 | 25735 ft | 457 kts | 51° |
| 2026-05-09 08:21 | -19.07892 | -42.99000 | 26124 ft | 461 kts | 51° |
| 2026-05-09 08:21 | -19.05942 | -42.96326 | 26537 ft | 464 kts | 51° |
| 2026-05-09 08:21 | -19.03979 | -42.93636 | 26897 ft | 468 kts | 51° |
| 2026-05-09 08:22 | -19.01985 | -42.90904 | 27322 ft | 470 kts | 51° |
| 2026-05-09 08:22 | -18.99971 | -42.88147 | 27637 ft | 475 kts | 51° |
| 2026-05-09 08:22 | -18.97959 | -42.85392 | 28058 ft | 476 kts | 51° |
| 2026-05-09 08:22 | -18.95915 | -42.82608 | 28369 ft | 480 kts | 51° |
| 2026-05-09 08:23 | -18.93832 | -42.79874 | 28743 ft | 481 kts | 49° |
| 2026-05-09 08:23 | -18.91543 | -42.77277 | 29072 ft | 483 kts | 43° |
| 2026-05-09 08:23 | -18.89045 | -42.74932 | 29609 ft | 480 kts | 38° |
| 2026-05-09 08:23 | -18.86443 | -42.72751 | 30220 ft | 476 kts | 36° |
| 2026-05-09 08:24 | -18.83826 | -42.70680 | 30801 ft | 472 kts | 35° |
| 2026-05-09 08:24 | -18.81161 | -42.68623 | 31307 ft | 470 kts | 34° |
| 2026-05-09 08:24 | -18.78522 | -42.66595 | 31783 ft | 468 kts | 34° |
| 2026-05-09 08:24 | -18.75902 | -42.64574 | 32206 ft | 467 kts | 35° |
| 2026-05-09 08:25 | -18.73294 | -42.62545 | 32619 ft | 467 kts | 35° |
| 2026-05-09 08:25 | -18.70673 | -42.60490 | 33031 ft | 466 kts | 35° |
| 2026-05-09 08:25 | -18.68099 | -42.58460 | 33473 ft | 464 kts | 36° |
| 2026-05-09 08:25 | -18.65502 | -42.56401 | 33836 ft | 465 kts | 36° |
| 2026-05-09 08:26 | -18.62905 | -42.54337 | 34164 ft | 465 kts | 36° |
| 2026-05-09 08:26 | -18.60327 | -42.52285 | 34550 ft | 465 kts | 35° |
| 2026-05-09 08:26 | -18.57759 | -42.50240 | 34880 ft | 465 kts | 36° |
| 2026-05-09 08:26 | -18.55194 | -42.48196 | 35211 ft | 465 kts | 36° |
| 2026-05-09 08:27 | -18.52588 | -42.46119 | 35550 ft | 465 kts | 36° |
| 2026-05-09 08:27 | -18.50015 | -42.44069 | 35879 ft | 464 kts | 36° |
| 2026-05-09 08:27 | -18.47468 | -42.42040 | 36170 ft | 465 kts | 35° |
| 2026-05-09 08:27 | -18.44859 | -42.39962 | 36411 ft | 466 kts | 35° |
| 2026-05-09 08:28 | -18.42289 | -42.37917 | 36696 ft | 466 kts | 35° |
| 2026-05-09 08:28 | -18.39692 | -42.35853 | 36949 ft | 467 kts | 35° |
| 2026-05-09 08:28 | -18.37097 | -42.33790 | 37157 ft | 467 kts | 35° |
| 2026-05-09 08:28 | -18.34494 | -42.31721 | 37166 ft | 469 kts | 35° |
| 2026-05-09 08:29 | -18.29304 | -42.27599 | 37171 ft | 465 kts | 35° |
| 2026-05-09 08:29 | -18.24140 | -42.23501 | 37177 ft | 466 kts | 35° |
| 2026-05-09 08:30 | -18.18961 | -42.19396 | 37164 ft | 467 kts | 35° |
| 2026-05-09 08:30 | -18.13785 | -42.15295 | 37158 ft | 466 kts | 35° |
| 2026-05-09 08:31 | -18.08593 | -42.11185 | 37152 ft | 467 kts | 35° |
| 2026-05-09 08:31 | -18.03381 | -42.07063 | 37149 ft | 467 kts | 35° |
| 2026-05-09 08:32 | -17.98216 | -42.02978 | 37154 ft | 467 kts | 35° |
| 2026-05-09 08:33 | -17.90411 | -41.96815 | 37155 ft | 466 kts | 35° |
| 2026-05-09 08:33 | -17.85248 | -41.92740 | 37160 ft | 467 kts | 35° |
| 2026-05-09 08:34 | -17.80035 | -41.88630 | 37161 ft | 466 kts | 35° |
| 2026-05-09 08:34 | -17.74849 | -41.84546 | 37161 ft | 466 kts | 35° |
| 2026-05-09 08:35 | -17.69668 | -41.80468 | 37156 ft | 467 kts | 35° |
| 2026-05-09 08:35 | -17.64489 | -41.76394 | 37151 ft | 466 kts | 35° |
| 2026-05-09 08:36 | -17.59276 | -41.72295 | 37147 ft | 467 kts | 35° |
| 2026-05-09 08:36 | -17.54088 | -41.68218 | 37141 ft | 466 kts | 35° |
| 2026-05-09 08:37 | -17.48889 | -41.64137 | 37134 ft | 466 kts | 35° |
| 2026-05-09 08:37 | -17.43702 | -41.60068 | 37137 ft | 467 kts | 35° |
| 2026-05-09 08:38 | -17.38510 | -41.55999 | 37135 ft | 467 kts | 35° |
| 2026-05-09 08:38 | -17.33287 | -41.51908 | 37135 ft | 467 kts | 35° |
| 2026-05-09 08:39 | -17.28111 | -41.47856 | 37138 ft | 467 kts | 35° |
| 2026-05-09 08:39 | -17.22884 | -41.43767 | 37139 ft | 467 kts | 35° |
| 2026-05-09 08:40 | -17.17690 | -41.39707 | 37142 ft | 467 kts | 36° |
| 2026-05-09 08:40 | -17.12459 | -41.35620 | 37145 ft | 467 kts | 35° |
| 2026-05-09 08:41 | -17.07263 | -41.31564 | 37146 ft | 467 kts | 35° |
| 2026-05-09 08:41 | -17.02053 | -41.27500 | 37146 ft | 469 kts | 35° |
| 2026-05-09 08:42 | -16.96819 | -41.23419 | 37144 ft | 467 kts | 35° |
| 2026-05-09 08:42 | -16.91623 | -41.19371 | 37141 ft | 467 kts | 35° |
| 2026-05-09 08:43 | -16.86427 | -41.15327 | 37138 ft | 467 kts | 35° |
| 2026-05-09 08:43 | -16.81209 | -41.11268 | 37139 ft | 468 kts | 35° |
| 2026-05-09 08:44 | -16.75995 | -41.07216 | 37141 ft | 468 kts | 35° |
| 2026-05-09 08:44 | -16.70770 | -41.03156 | 37137 ft | 466 kts | 35° |
| 2026-05-09 08:45 | -16.65559 | -40.99108 | 37142 ft | 467 kts | 35° |
| 2026-05-09 08:45 | -16.60338 | -40.95059 | 37141 ft | 467 kts | 35° |
| 2026-05-09 08:46 | -16.55156 | -40.91042 | 37144 ft | 466 kts | 35° |
| 2026-05-09 08:46 | -16.49940 | -40.87003 | 37146 ft | 465 kts | 35° |
| 2026-05-09 08:47 | -16.44755 | -40.82991 | 37140 ft | 465 kts | 35° |
| 2026-05-09 08:47 | -16.39549 | -40.78963 | 37132 ft | 466 kts | 35° |
| 2026-05-09 08:48 | -16.34352 | -40.74945 | 37128 ft | 466 kts | 35° |
| 2026-05-09 08:48 | -16.29126 | -40.70907 | 37121 ft | 465 kts | 35° |
| 2026-05-09 08:49 | -16.23947 | -40.66909 | 37115 ft | 467 kts | 35° |
| 2026-05-09 08:49 | -16.18723 | -40.62878 | 36795 ft | 463 kts | 35° |
| 2026-05-09 08:49 | -16.16143 | -40.60889 | 36336 ft | 458 kts | 36° |
| 2026-05-09 08:50 | -16.13610 | -40.58936 | 35765 ft | 456 kts | 36° |
| 2026-05-09 08:50 | -16.11044 | -40.56959 | 35079 ft | 456 kts | 36° |
| 2026-05-09 08:50 | -16.08538 | -40.55029 | 34593 ft | 451 kts | 36° |
| 2026-05-09 08:50 | -16.06020 | -40.53090 | 34081 ft | 450 kts | 36° |
| 2026-05-09 08:51 | -16.03487 | -40.51139 | 33550 ft | 454 kts | 36° |
| 2026-05-09 08:51 | -16.00946 | -40.49184 | 33006 ft | 452 kts | 37° |
| 2026-05-09 08:51 | -15.98429 | -40.47248 | 32499 ft | 449 kts | 36° |
| 2026-05-09 08:51 | -15.95921 | -40.45319 | 31977 ft | 446 kts | 36° |
| 2026-05-09 08:52 | -15.93442 | -40.43413 | 31442 ft | 443 kts | 36° |
| 2026-05-09 08:52 | -15.90956 | -40.41504 | 30908 ft | 441 kts | 36° |
| 2026-05-09 08:52 | -15.88526 | -40.39639 | 30382 ft | 438 kts | 36° |
| 2026-05-09 08:52 | -15.86071 | -40.37755 | 29847 ft | 435 kts | 36° |
| 2026-05-09 08:53 | -15.83652 | -40.35899 | 29324 ft | 433 kts | 36° |
| 2026-05-09 08:53 | -15.81221 | -40.34034 | 28794 ft | 430 kts | 35° |
| 2026-05-09 08:53 | -15.78817 | -40.32191 | 28269 ft | 428 kts | 35° |
| 2026-05-09 08:53 | -15.76438 | -40.30369 | 27743 ft | 425 kts | 36° |
| 2026-05-09 08:54 | -15.74073 | -40.28557 | 27212 ft | 420 kts | 36° |
| 2026-05-09 08:54 | -15.71736 | -40.26768 | 26720 ft | 415 kts | 36° |
| 2026-05-09 08:54 | -15.69444 | -40.25013 | 26201 ft | 411 kts | 36° |
| 2026-05-09 08:54 | -15.67125 | -40.23239 | 25692 ft | 408 kts | 37° |
| 2026-05-09 08:55 | -15.64878 | -40.21520 | 25195 ft | 404 kts | 37° |
| 2026-05-09 08:55 | -15.62613 | -40.19787 | 24688 ft | 400 kts | 37° |
| 2026-05-09 08:55 | -15.60394 | -40.18088 | 24192 ft | 397 kts | 38° |
| 2026-05-09 08:55 | -15.58253 | -40.16302 | 23703 ft | 392 kts | 43° |
| 2026-05-09 08:56 | -15.56275 | -40.14386 | 23208 ft | 389 kts | 46° |
| 2026-05-09 08:56 | -15.54394 | -40.12404 | 22720 ft | 385 kts | 48° |
| 2026-05-09 08:56 | -15.52554 | -40.10400 | 22242 ft | 382 kts | 49° |
| 2026-05-09 08:56 | -15.50742 | -40.08406 | 21783 ft | 378 kts | 49° |
| 2026-05-09 08:57 | -15.48949 | -40.06437 | 21307 ft | 373 kts | 49° |
| 2026-05-09 08:57 | -15.47167 | -40.04493 | 20836 ft | 366 kts | 48° |
| 2026-05-09 08:57 | -15.45434 | -40.02610 | 20377 ft | 360 kts | 48° |
| 2026-05-09 08:57 | -15.43726 | -40.00762 | 19922 ft | 354 kts | 47° |
| 2026-05-09 08:58 | -15.42039 | -39.98943 | 19471 ft | 348 kts | 47° |
| 2026-05-09 08:58 | -15.40352 | -39.97126 | 19019 ft | 342 kts | 47° |
| 2026-05-09 08:58 | -15.38719 | -39.95370 | 18585 ft | 336 kts | 47° |
| 2026-05-09 08:58 | -15.37119 | -39.93650 | 18222 ft | 329 kts | 47° |
| 2026-05-09 08:59 | -15.35545 | -39.91958 | 18002 ft | 330 kts | 47° |
| 2026-05-09 08:59 | -15.33933 | -39.90227 | 17787 ft | 333 kts | 47° |
| 2026-05-09 08:59 | -15.32339 | -39.88516 | 17540 ft | 330 kts | 47° |
| 2026-05-09 08:59 | -15.30742 | -39.86807 | 17300 ft | 324 kts | 47° |
| 2026-05-09 09:00 | -15.29197 | -39.85152 | 16979 ft | 319 kts | 47° |
| 2026-05-09 09:00 | -15.27644 | -39.83490 | 16558 ft | 318 kts | 47° |
| 2026-05-09 09:00 | -15.26112 | -39.81850 | 16127 ft | 317 kts | 47° |
| 2026-05-09 09:00 | -15.24602 | -39.80234 | 15696 ft | 316 kts | 46° |
| 2026-05-09 09:01 | -15.23069 | -39.78593 | 15259 ft | 314 kts | 46° |
| 2026-05-09 09:01 | -15.21561 | -39.76980 | 14833 ft | 313 kts | 46° |
| 2026-05-09 09:01 | -15.20049 | -39.75363 | 14399 ft | 312 kts | 46° |
| 2026-05-09 09:01 | -15.18542 | -39.73751 | 13969 ft | 310 kts | 46° |
| 2026-05-09 09:02 | -15.17060 | -39.72168 | 13542 ft | 307 kts | 46° |
| 2026-05-09 09:02 | -15.15578 | -39.70584 | 13114 ft | 304 kts | 46° |
| 2026-05-09 09:02 | -15.14109 | -39.69015 | 12689 ft | 301 kts | 46° |
| 2026-05-09 09:02 | -15.12663 | -39.67470 | 12272 ft | 298 kts | 46° |
| 2026-05-09 09:03 | -15.11219 | -39.65930 | 11854 ft | 295 kts | 46° |
| 2026-05-09 09:03 | -15.09811 | -39.64426 | 11443 ft | 292 kts | 47° |
| 2026-05-09 09:03 | -15.08389 | -39.62909 | 11027 ft | 289 kts | 47° |
| 2026-05-09 09:03 | -15.06998 | -39.61423 | 10617 ft | 286 kts | 47° |
| 2026-05-09 09:04 | -15.05627 | -39.59961 | 10294 ft | 280 kts | 47° |
| 2026-05-09 09:04 | -15.04284 | -39.58528 | 10114 ft | 270 kts | 47° |
| 2026-05-09 09:04 | -15.02995 | -39.57153 | 9790 ft | 265 kts | 47° |
| 2026-05-09 09:04 | -15.01726 | -39.55798 | 9427 ft | 263 kts | 47° |
| 2026-05-09 09:05 | -15.00462 | -39.54444 | 9080 ft | 259 kts | 49° |
| 2026-05-09 09:05 | -14.99303 | -39.53025 | 8740 ft | 256 kts | 53° |
| 2026-05-09 09:05 | -14.98236 | -39.51577 | 8403 ft | 253 kts | 54° |
| 2026-05-09 09:05 | -14.97196 | -39.50129 | 8070 ft | 250 kts | 54° |
| 2026-05-09 09:06 | -14.96160 | -39.48696 | 7736 ft | 248 kts | 54° |
| 2026-05-09 09:06 | -14.95129 | -39.47285 | 7410 ft | 245 kts | 54° |
| 2026-05-09 09:06 | -14.94102 | -39.45887 | 7100 ft | 241 kts | 54° |
| 2026-05-09 09:06 | -14.93097 | -39.44520 | 6765 ft | 237 kts | 54° |
| 2026-05-09 09:07 | -14.92099 | -39.43164 | 6449 ft | 233 kts | 55° |
| 2026-05-09 09:07 | -14.91127 | -39.41842 | 6139 ft | 229 kts | 55° |
| 2026-05-09 09:07 | -14.90178 | -39.40551 | 5830 ft | 226 kts | 54° |
| 2026-05-09 09:07 | -14.89236 | -39.39271 | 5530 ft | 223 kts | 54° |
| 2026-05-09 09:08 | -14.88294 | -39.37991 | 5232 ft | 220 kts | 54° |
| 2026-05-09 09:08 | -14.87371 | -39.36741 | 4936 ft | 217 kts | 54° |
| 2026-05-09 09:08 | -14.86470 | -39.35518 | 4626 ft | 215 kts | 54° |
| 2026-05-09 09:08 | -14.85567 | -39.34292 | 4378 ft | 209 kts | 54° |
| 2026-05-09 09:09 | -14.84708 | -39.33125 | 4280 ft | 197 kts | 54° |
| 2026-05-09 09:09 | -14.83907 | -39.32037 | 4219 ft | 184 kts | 54° |
| 2026-05-09 09:09 | -14.83147 | -39.31000 | 4166 ft | 178 kts | 55° |
| 2026-05-09 09:09 | -14.82438 | -39.29945 | 4097 ft | 182 kts | 64° |
| 2026-05-09 09:10 | -14.82147 | -39.28685 | 3928 ft | 182 kts | 89° |
| 2026-05-09 09:10 | -14.82188 | -39.27386 | 3679 ft | 179 kts | 90° |
| 2026-05-09 09:10 | -14.82195 | -39.26120 | 3461 ft | 175 kts | 88° |
| 2026-05-09 09:10 | -14.82166 | -39.24887 | 3261 ft | 166 kts | 87° |
| 2026-05-09 09:11 | -14.82131 | -39.23680 | 3083 ft | 168 kts | 88° |
| 2026-05-09 09:11 | -14.82099 | -39.22475 | 2956 ft | 168 kts | 88° |
| 2026-05-09 09:11 | -14.82068 | -39.21275 | 2822 ft | 166 kts | 88° |
| 2026-05-09 09:11 | -14.82035 | -39.20084 | 2702 ft | 161 kts | 88° |
| 2026-05-09 09:12 | -14.82005 | -39.18945 | 2562 ft | 159 kts | 88° |
| 2026-05-09 09:12 | -14.81975 | -39.17798 | 2421 ft | 160 kts | 88° |
| 2026-05-09 09:12 | -14.81943 | -39.16660 | 2245 ft | 157 kts | 88° |
| 2026-05-09 09:12 | -14.81913 | -39.15524 | 2100 ft | 156 kts | 88° |
| 2026-05-09 09:13 | -14.81884 | -39.14430 | 1938 ft | 148 kts | 88° |
| 2026-05-09 09:13 | -14.81857 | -39.13410 | 1786 ft | 142 kts | 88° |
| 2026-05-09 09:13 | -14.81829 | -39.12383 | 1689 ft | 141 kts | 88° |
| 2026-05-09 09:13 | -14.81802 | -39.11357 | 1503 ft | 142 kts | 88° |
| 2026-05-09 09:14 | -14.81776 | -39.10342 | 1267 ft | 142 kts | 88° |
| 2026-05-09 09:14 | -14.81750 | -39.09317 | 1076 ft | 142 kts | 89° |
| 2026-05-09 09:14 | -14.81724 | -39.08291 | 881 ft | 143 kts | 88° |
| 2026-05-09 09:14 | -14.81694 | -39.07261 | 703 ft | 142 kts | 89° |
| 2026-05-09 09:15 | -14.81688 | -39.06241 | 486 ft | 144 kts | 88° |
| 2026-05-09 09:15 | -14.81656 | -39.05207 | 296 ft | 144 kts | 87° |
| 2026-05-09 09:15 | -14.81621 | -39.04172 | 92 ft | 143 kts | 87° |
| 2026-05-09 09:15 | -14.81585 | -39.03190 | 25 ft | 119 kts | 88° |
| 2026-05-09 09:16 | -14.81570 | -39.02658 | 25 ft | 31 kts | 88° |
| 2026-05-09 09:16 | -14.81560 | -39.02592 | 25 ft | 1 kts | 62° |
| 2026-05-09 09:16 | -14.81558 | -39.02586 | 25 ft | 0 kts | 86° |
| 2026-05-09 09:17 | -14.81560 | -39.02580 | 25 ft | 1 kts | 125° |
| 2026-05-09 09:17 | -14.81574 | -39.02576 | 25 ft | 2 kts | 192° |
| 2026-05-09 09:17 | -14.81582 | -39.02597 | 25 ft | 4 kts | 274° |
| 2026-05-09 09:17 | -14.81576 | -39.02638 | 25 ft | 6 kts | 278° |
| 2026-05-09 09:18 | -14.81573 | -39.02687 | 25 ft | 7 kts | 271° |
| 2026-05-09 09:18 | -14.81573 | -39.02741 | 25 ft | 7 kts | 268° |
| 2026-05-09 09:18 | -14.81576 | -39.02800 | 25 ft | 8 kts | 268° |
| 2026-05-09 09:18 | -14.81576 | -39.02864 | 25 ft | 9 kts | 269° |
| 2026-05-09 09:19 | -14.81578 | -39.02931 | 25 ft | 9 kts | 267° |
| 2026-05-09 09:19 | -14.81580 | -39.02998 | 25 ft | 9 kts | 269° |
| 2026-05-09 09:19 | -14.81574 | -39.03057 | 25 ft | 6 kts | 295° |
| 2026-05-09 09:19 | -14.81570 | -39.03063 | 25 ft | 0 kts | 304° |
| 2026-05-09 09:20 | -14.81568 | -39.03067 | 25 ft | 1 kts | 306° |
| 2026-05-09 09:20 | -14.81556 | -39.03079 | 26 ft | 3 kts | 328° |
| 2026-05-09 09:20 | -14.81523 | -39.03082 | 25 ft | 6 kts | 4° |
| 2026-05-09 09:20 | -14.81488 | -39.03097 | 26 ft | 5 kts | 301° |
| 2026-05-09 09:21 | -14.81481 | -39.03135 | 26 ft | 5 kts | 274° |
| 2026-05-09 09:21 | -14.81481 | -39.03169 | 26 ft | 2 kts | 267° |
| 2026-05-09 09:21 | -14.81479 | -39.03185 | 26 ft | 2 kts | 300° |
| 2026-05-09 09:21 | -14.81462 | -39.03193 | 26 ft | 2 kts | 347° |
| 2026-05-09 09:22 | -14.81455 | -39.03194 | 26 ft | 0 kts | 351° |
| 2026-05-09 09:22 | -14.81452 | -39.03194 | 26 ft | 0 kts | 357° |
| 2026-05-09 09:22 | -14.81451 | -39.03194 | 26 ft | 0 kts | 357° |